臺北終端管制區 - 桃園五邊雷達席

METAR RCTP 092300Z 27003KT 9999 FEW012 SCT150 28/24 Q1009 NOSIG RMK A2980=

站台狀態:Offline
最後更新:2021-05-10 07:00:01